Terminal Aerodrome Forecast
Issued by NWS Bismarck, ND

Home | Current Version | Previous Version | Text Only | Print | Product List | Glossary Off
Versions: 1 2 3 4 5 6 7 8 9 10 11 12 13 14 15 16 17 18 19 20 21 22 23 24 25 26 27

000
FTUS43 KBIS 011722
TAFISN
TAF
KISN 011722Z 0118/0218 18007KT P6SM SKC
     FM012100 17008KT P6SM -TSRA BKN050CB
     FM020300 05010KT P6SM VCTS BKN050CB
     FM021200 04012KT P6SM BKN080=

USA.gov is the U.S. government's official web portal to all federal, state and local government web resources and services.